Terminal Aerodrome Forecast
Issued by NWS

Home | Current Version | Previous Version | Text Only | Print | Product List | Glossary Off
Versions: 1 2 3 4 5 6 7 8 9 10 11 12

000
FTUS43 KTOP 241100
TAFFOE
TAF
KFOE 241122Z 2412/2512 33014G22KT P6SM OVC013
      TEMPO 2412/2413 6SM -SN
     FM241700 32014KT P6SM OVC015
     FM242300 28010KT P6SM BKN022
     FM250300 21006KT P6SM SKC=

USA.gov is the U.S. government's official web portal to all federal, state and local government web resources and services.